الصفحة الرئيسية
METAR-TAF:

METAR-TAF

مطار :

Puerto Suárez, بوليفيا

دائرة عرض: 18-59S, خط طول: 057-49W, ارتفاع: 134 متر

مراقبة الطقس الحالي

تاريخ ووقت الإصدار 41 دقيقة قبل الساعة 22:00UTC
رياح هادئة
درجة الحرارة 30°درجة مئوية
الرطوبة 62%
ضغط 1008 hPa
الرؤية: 9000 متر
غيوم قليلة على ارتفاع 1700 قدم

METAR: SLPS 172200Z 00000KT 9000 FEW017 30/22 Q1008

زمن: 18:41 (22:41 UTC)


TAF: مفقودة

أرصاد الطقس والتوقعات من أكثر من 4000 مطار (تقارير الطقس للمطار METAR والتنبؤ بالطقس بالمطارTAF).

المحطات المتاحة هي النقط الصفراء والحمراء على الخريطة.

حرك المؤشر فوق النقطة لمعرفة اسم المحطة.

ثم انقر لمعرفة أرصاد وتوقعات الطقس.

لتغيير الخارطة: اضغط على الأزرار الخضراء مع رمز الصليب الأسود للتكبير. على الزر الأخضر مع شرطة للتصغير، أو على الأسهم الخضراء للخرائط المجاورة.


METAR-TAF: